Time;durP1;ratioP1;P1;durP2;ratioP2;P2;SDS_P1;SDS_P2;PMS_P1;PMS_P2;Temp;Humidity;BMP_temperature;BMP_pressure;BME280_temperature;BME280_humidity;BME280_pressure;Samples;Min_cycle;Max_cycle;Signal;HPM_P1;HPM_P2
2022/03/19 00:01:10;;;;;;;4.45;2.87;;;6.20;91.10;;;;;;649776;221;26511;-62
2022/03/19 00:03:38;;;;;;;5.28;2.95;;;6.10;91.10;;;;;;636948;225;26494;-61
2022/03/19 00:06:06;;;;;;;3.45;2.92;;;6.00;91.30;;;;;;645735;221;26760;-62
2022/03/19 00:08:33;;;;;;;7.03;3.05;;;6.00;91.30;;;;;;648934;220;26786;-61
2022/03/19 00:11:01;;;;;;;3.90;2.40;;;5.90;91.20;;;;;;639222;223;26472;-61
2022/03/19 00:13:28;;;;;;;4.40;2.70;;;6.00;91.40;;;;;;639593;224;26807;-61
2022/03/19 00:15:55;;;;;;;4.40;2.78;;;5.90;91.20;;;;;;639217;224;26588;-61
2022/03/19 00:18:24;;;;;;;4.07;2.65;;;5.90;91.30;;;;;;639688;221;26799;-62
2022/03/19 00:20:50;;;;;;;4.78;2.87;;;5.80;91.30;;;;;;638918;221;26562;-61
2022/03/19 00:23:17;;;;;;;4.80;2.75;;;5.80;91.20;;;;;;638754;225;26884;-61
2022/03/19 00:25:45;;;;;;;5.87;3.00;;;5.80;91.30;;;;;;642588;221;26557;-60
2022/03/19 00:28:12;;;;;;;4.57;2.50;;;5.70;91.10;;;;;;650302;221;27096;-62
2022/03/19 00:30:40;;;;;;;4.25;2.92;;;5.80;91.10;;;;;;643114;221;26554;-61
2022/03/19 00:33:08;;;;;;;4.50;2.60;;;5.80;91.10;;;;;;627563;229;26578;-61
2022/03/19 00:35:35;;;;;;;3.75;2.62;;;5.70;91.10;;;;;;631021;225;26539;-62
2022/03/19 00:38:04;;;;;;;4.30;3.03;;;5.60;91.00;;;;;;647278;221;26561;-61
2022/03/19 00:40:29;;;;;;;5.90;2.85;;;5.60;91.10;;;;;;645530;222;26945;-61
2022/03/19 00:42:57;;;;;;;5.40;2.72;;;5.50;91.10;;;;;;640690;221;26524;-62
2022/03/19 00:45:24;;;;;;;3.22;2.30;;;5.50;91.30;;;;;;648635;221;26774;-61
2022/03/19 00:47:52;;;;;;;4.12;2.53;;;5.40;91.30;;;;;;625937;230;26614;-62
2022/03/19 00:50:20;;;;;;;4.37;2.53;;;5.40;91.40;;;;;;640489;221;26508;-61
2022/03/19 00:52:47;;;;;;;3.53;2.42;;;5.40;91.40;;;;;;638119;225;26737;-61
2022/03/19 00:55:14;;;;;;;5.35;2.70;;;5.40;91.60;;;;;;640066;224;26548;-61
2022/03/19 00:57:41;;;;;;;4.62;2.58;;;5.40;91.40;;;;;;638097;225;26829;-61
2022/03/19 01:00:11;;;;;;;4.72;2.65;;;5.30;91.40;;;;;;642936;221;26505;-61
2022/03/19 01:02:38;;;;;;;5.70;2.42;;;5.30;91.40;;;;;;639031;221;26497;-61
2022/03/19 01:05:06;;;;;;;3.15;2.35;;;5.30;91.50;;;;;;638493;223;26498;-62
2022/03/19 01:07:33;;;;;;;3.15;2.35;;;5.20;91.60;;;;;;638142;225;26512;-60
2022/03/19 01:10:00;;;;;;;3.90;2.58;;;5.20;91.60;;;;;;638140;225;26864;-61
2022/03/19 01:12:27;;;;;;;4.03;2.50;;;5.20;91.70;;;;;;638186;225;26477;-62
2022/03/19 01:14:54;;;;;;;3.62;2.60;;;5.10;91.80;;;;;;629004;225;26836;-62
2022/03/19 01:17:23;;;;;;;4.00;2.30;;;5.10;91.80;;;;;;620383;232;26521;-61
2022/03/19 01:19:53;;;;;;;4.20;2.37;;;5.10;91.90;;;;;;632617;227;26535;-60
2022/03/19 01:22:21;;;;;;;3.28;2.40;;;5.10;91.90;;;;;;633494;225;26766;-60
2022/03/19 01:24:48;;;;;;;3.92;2.58;;;5.00;92.10;;;;;;632632;225;26577;-61
2022/03/19 01:27:16;;;;;;;4.03;2.28;;;4.90;92.70;;;;;;618518;229;26606;-61
2022/03/19 01:29:44;;;;;;;7.00;2.95;;;4.90;92.40;;;;;;650838;221;26558;-62
2022/03/19 01:32:11;;;;;;;2.80;2.45;;;4.90;92.40;;;;;;625816;229;26891;-61
2022/03/19 01:34:38;;;;;;;4.55;2.40;;;5.00;92.50;;;;;;649597;221;26579;-61
2022/03/19 01:37:06;;;;;;;3.30;2.33;;;4.90;92.60;;;;;;638357;225;26476;-62
2022/03/19 01:39:33;;;;;;;3.12;2.22;;;4.90;92.60;;;;;;638374;225;26512;-61
2022/03/19 01:42:01;;;;;;;2.53;2.17;;;4.80;92.80;;;;;;650118;221;26500;-61
2022/03/19 01:44:29;;;;;;;4.62;2.55;;;4.70;93.20;;;;;;634358;225;26557;-62
2022/03/19 01:46:57;;;;;;;3.65;2.05;;;4.70;93.20;;;;;;621500;230;26794;-62
2022/03/19 01:49:25;;;;;;;2.55;2.00;;;4.80;93.30;;;;;;650096;221;26507;-62
2022/03/19 01:51:53;;;;;;;4.45;2.58;;;4.70;93.20;;;;;;638069;225;26696;-61
2022/03/19 01:54:24;;;;;;;2.65;2.12;;;4.70;93.30;;;;;;647216;221;26621;-61
2022/03/19 01:56:51;;;;;;;2.92;2.20;;;4.70;93.40;;;;;;638560;221;26551;-62
2022/03/19 01:59:18;;;;;;;5.82;2.55;;;4.70;93.50;;;;;;640135;224;26746;-61
2022/03/19 02:01:45;;;;;;;3.85;2.67;;;4.70;93.60;;;;;;638025;225;26476;-62
2022/03/19 02:04:12;;;;;;;3.58;2.28;;;4.70;93.70;;;;;;639565;224;27173;-61
2022/03/19 02:06:40;;;;;;;2.47;2.03;;;4.60;93.80;;;;;;649798;221;26536;-61
2022/03/19 02:09:08;;;;;;;3.20;2.40;;;4.70;93.90;;;;;;634603;225;26495;-62
2022/03/19 02:11:36;;;;;;;3.42;2.40;;;4.70;93.80;;;;;;621147;230;26480;-61
2022/03/19 02:14:04;;;;;;;5.82;2.78;;;4.60;94.00;;;;;;649708;221;26550;-61
2022/03/19 02:16:32;;;;;;;3.50;2.30;;;4.50;94.00;;;;;;637764;225;26557;-61
2022/03/19 02:18:59;;;;;;;4.43;2.33;;;4.60;94.00;;;;;;649815;221;26779;-61
2022/03/19 02:21:26;;;;;;;2.95;2.33;;;4.60;94.00;;;;;;637049;225;26735;-61
2022/03/19 02:26:28;;;;;;;4.97;2.60;;;4.60;94.10;;;;;;638024;225;26551;-61
2022/03/19 02:28:55;;;;;;;4.62;2.30;;;4.70;94.00;;;;;;649845;221;26533;-62
2022/03/19 02:31:22;;;;;;;6.28;2.78;;;4.60;94.10;;;;;;636905;225;26512;-61
2022/03/19 02:33:50;;;;;;;4.82;2.75;;;4.50;94.30;;;;;;616290;231;26788;-61
2022/03/19 02:36:20;;;;;;;5.82;2.90;;;4.50;94.20;;;;;;628617;229;26529;-62
2022/03/19 02:38:45;;;;;;;4.72;2.30;;;4.50;94.50;;;;;;616489;233;26833;-61
2022/03/19 02:41:11;;;;;;;4.95;2.45;;;4.50;94.60;;;;;;616198;230;26594;-61
2022/03/19 02:43:39;;;;;;;6.18;3.08;;;4.50;94.50;;;;;;637566;225;26787;-60
2022/03/19 02:46:06;;;;;;;6.20;2.30;;;4.40;94.90;;;;;;650448;221;26565;-62
2022/03/19 02:48:34;;;;;;;5.43;2.80;;;4.40;94.90;;;;;;638424;225;26510;-62
2022/03/19 02:51:01;;;;;;;4.57;2.50;;;4.40;95.10;;;;;;650531;221;26555;-61
2022/03/19 02:53:29;;;;;;;5.62;2.53;;;4.30;95.10;;;;;;633834;225;27156;-61
2022/03/19 02:55:55;;;;;;;4.75;3.00;;;4.30;95.40;;;;;;615799;233;26626;-60
2022/03/19 02:58:22;;;;;;;5.47;2.78;;;4.20;95.40;;;;;;627524;229;26804;-62
2022/03/19 03:00:50;;;;;;;4.18;2.30;;;4.30;95.70;;;;;;615799;233;26596;-61
2022/03/19 03:03:18;;;;;;;4.18;2.50;;;4.20;95.90;;;;;;632241;225;26470;-61
2022/03/19 03:05:46;;;;;;;4.15;2.83;;;4.20;95.90;;;;;;632973;227;26528;-62
2022/03/19 03:08:13;;;;;;;5.60;2.67;;;4.20;96.00;;;;;;620334;231;26454;-61
2022/03/19 03:10:40;;;;;;;5.62;2.47;;;4.20;96.10;;;;;;632671;227;26728;-60
2022/03/19 03:13:07;;;;;;;5.43;2.60;;;4.20;96.10;;;;;;622845;230;26560;-61
2022/03/19 03:15:36;;;;;;;4.57;2.37;;;4.10;96.30;;;;;;640770;221;26531;-61
2022/03/19 03:18:03;;;;;;;4.37;2.35;;;4.10;96.20;;;;;;638096;225;26710;-61
2022/03/19 03:20:30;;;;;;;3.20;2.47;;;4.10;96.20;;;;;;638051;225;26521;-61
2022/03/19 03:22:57;;;;;;;5.43;2.62;;;4.10;96.40;;;;;;638015;225;27181;-62
2022/03/19 03:25:24;;;;;;;5.07;2.30;;;4.10;96.20;;;;;;643045;221;26526;-62
2022/03/19 03:27:52;;;;;;;3.72;2.10;;;4.00;96.50;;;;;;637730;225;26515;-61
2022/03/19 03:30:20;;;;;;;4.97;2.58;;;3.90;96.70;;;;;;649787;221;26542;-61
2022/03/19 03:32:47;;;;;;;4.10;2.47;;;3.90;96.70;;;;;;637690;225;26517;-61
2022/03/19 03:35:14;;;;;;;4.05;2.40;;;3.90;96.80;;;;;;646947;221;26972;-60
2022/03/19 03:37:41;;;;;;;5.90;2.65;;;3.80;97.10;;;;;;642091;221;26488;-60
2022/03/19 03:40:09;;;;;;;5.28;2.55;;;3.80;97.00;;;;;;639172;221;26500;-61
2022/03/19 03:42:41;;;;;;;4.90;2.40;;;3.80;97.20;;;;;;634035;225;26543;-61
2022/03/19 03:45:08;;;;;;;3.25;2.20;;;3.80;97.20;;;;;;626756;225;26831;-61
2022/03/19 03:47:35;;;;;;;4.07;2.35;;;3.80;97.20;;;;;;633623;227;26538;-61
2022/03/19 03:50:02;;;;;;;4.03;2.47;;;3.80;97.10;;;;;;633317;226;26726;-60
2022/03/19 03:52:30;;;;;;;4.03;2.22;;;3.80;97.30;;;;;;632992;226;26537;-61
2022/03/19 03:54:57;;;;;;;3.65;2.60;;;3.80;97.30;;;;;;625032;229;26617;-61
2022/03/19 03:57:24;;;;;;;5.78;2.12;;;3.70;97.30;;;;;;616225;229;26614;-59
2022/03/19 03:59:52;;;;;;;5.70;2.60;;;3.50;97.70;;;;;;626850;226;26549;-60
2022/03/19 04:02:19;;;;;;;74.65;13.35;;;3.50;97.60;;;;;;638585;225;26718;-59
2022/03/19 04:04:47;;;;;;;85.07;17.60;;;3.50;97.90;;;;;;649663;221;26721;-61
2022/03/19 04:07:15;;;;;;;78.60;14.13;;;3.50;98.10;;;;;;638358;225;26585;-60
2022/03/19 04:09:45;;;;;;;61.58;12.05;;;3.50;97.90;;;;;;638452;225;26539;-60
2022/03/19 04:12:14;;;;;;;68.05;12.82;;;3.50;97.90;;;;;;638402;225;26589;-60
2022/03/19 04:14:40;;;;;;;47.83;10.85;;;3.40;97.90;;;;;;640335;224;26914;-60
2022/03/19 04:17:07;;;;;;;45.83;10.13;;;3.50;97.90;;;;;;639734;224;26547;-60
2022/03/19 04:19:36;;;;;;;40.63;10.00;;;3.50;97.90;;;;;;633341;223;26530;-60
2022/03/19 04:22:04;;;;;;;43.00;9.02;;;3.40;97.80;;;;;;632864;225;26539;-60
2022/03/19 04:24:31;;;;;;;29.70;7.80;;;3.40;97.90;;;;;;636009;225;26578;-60
2022/03/19 04:26:59;;;;;;;32.33;8.02;;;3.40;97.90;;;;;;634309;225;26529;-61
2022/03/19 04:29:26;;;;;;;23.73;6.28;;;3.30;97.90;;;;;;630918;225;26527;-61
2022/03/19 04:31:53;;;;;;;21.10;6.10;;;3.20;98.10;;;;;;629149;225;26880;-61
2022/03/19 04:34:20;;;;;;;15.18;4.00;;;3.30;98.20;;;;;;620385;232;26590;-61
2022/03/19 04:36:48;;;;;;;13.00;3.70;;;3.30;98.10;;;;;;632721;227;26732;-60
2022/03/19 04:39:15;;;;;;;7.20;2.95;;;3.30;98.00;;;;;;632688;227;26475;-61
2022/03/19 04:41:42;;;;;;;10.70;3.30;;;3.30;98.10;;;;;;620445;232;26722;-61
2022/03/19 04:44:09;;;;;;;7.53;3.15;;;3.20;98.30;;;;;;632640;227;26552;-61
2022/03/19 04:46:36;;;;;;;7.80;2.72;;;3.30;98.30;;;;;;632709;227;26526;-60
2022/03/19 04:49:04;;;;;;;9.70;3.10;;;3.20;98.30;;;;;;621029;231;26508;-61
2022/03/19 04:51:32;;;;;;;8.02;2.72;;;3.10;98.40;;;;;;619550;232;26647;-60
2022/03/19 04:54:00;;;;;;;6.00;2.75;;;3.10;98.40;;;;;;620935;230;27193;-60
2022/03/19 04:56:27;;;;;;;7.15;3.20;;;3.00;98.40;;;;;;633046;225;26529;-59
2022/03/19 04:58:54;;;;;;;5.85;2.58;;;3.00;98.60;;;;;;634298;226;26702;-59
2022/03/19 05:01:21;;;;;;;5.97;2.67;;;2.90;98.70;;;;;;633835;227;26457;-59
2022/03/19 05:03:49;;;;;;;8.23;2.75;;;2.80;99.00;;;;;;633506;227;26448;-59
2022/03/19 05:06:16;;;;;;;7.25;3.05;;;3.00;98.80;;;;;;621756;231;26532;-60
2022/03/19 05:08:44;;;;;;;6.28;2.60;;;2.80;99.10;;;;;;633297;227;26550;-60
2022/03/19 05:11:12;;;;;;;5.50;2.87;;;2.80;98.90;;;;;;633269;227;26740;-59
2022/03/19 05:13:40;;;;;;;6.65;2.92;;;2.80;99.00;;;;;;621022;232;26533;-59
2022/03/19 05:16:08;;;;;;;6.65;2.85;;;2.90;99.00;;;;;;633322;227;26469;-60
2022/03/19 05:18:35;;;;;;;5.28;2.20;;;2.90;99.00;;;;;;621687;231;26551;-60
2022/03/19 05:21:03;;;;;;;7.18;2.80;;;2.80;99.20;;;;;;633376;227;26439;-61
2022/03/19 05:23:30;;;;;;;6.03;2.78;;;2.80;99.30;;;;;;621699;231;26710;-61
2022/03/19 05:25:58;;;;;;;6.82;2.55;;;2.70;99.60;;;;;;633321;227;26477;-59
2022/03/19 05:28:24;;;;;;;6.93;2.47;;;2.80;99.30;;;;;;633320;227;26460;-59
2022/03/19 05:30:52;;;;;;;8.38;3.08;;;2.90;99.10;;;;;;621649;231;26472;-59
2022/03/19 05:34:29;;;;;;;5.10;2.83;;;2.70;99.70;;;;;;632830;227;26470;-60
2022/03/19 05:35:48;;;;;;;4.80;2.40;;;2.70;99.50;;;;;;630736;227;26772;-60
2022/03/19 05:38:15;;;;;;;3.92;2.33;;;2.90;99.30;;;;;;620374;232;26534;-60
2022/03/19 05:40:42;;;;;;;6.53;2.60;;;2.90;99.20;;;;;;632770;227;26684;-59
2022/03/19 05:43:09;;;;;;;4.80;2.45;;;2.80;99.10;;;;;;620472;232;26537;-65
2022/03/19 05:45:36;;;;;;;4.90;2.55;;;2.90;99.20;;;;;;632702;227;26515;-66
2022/03/19 05:48:04;;;;;;;6.90;2.62;;;3.00;99.00;;;;;;620378;232;26554;-65
2022/03/19 05:50:31;;;;;;;5.22;2.60;;;3.00;99.10;;;;;;632680;227;26508;-66
2022/03/19 05:52:59;;;;;;;5.97;2.78;;;3.00;99.00;;;;;;620447;232;26882;-66
2022/03/19 05:55:26;;;;;;;5.45;2.60;;;3.00;99.00;;;;;;632687;227;26526;-66
2022/03/19 05:57:53;;;;;;;4.85;2.33;;;3.10;98.70;;;;;;620985;232;26538;-66
2022/03/19 06:00:21;;;;;;;4.95;2.53;;;3.10;98.70;;;;;;632654;227;26525;-66
2022/03/19 06:02:48;;;;;;;5.40;2.60;;;3.10;98.90;;;;;;620992;232;26764;-65
2022/03/19 06:05:15;;;;;;;4.85;2.53;;;3.10;98.80;;;;;;632612;227;26610;-66
2022/03/19 06:07:43;;;;;;;7.55;2.58;;;3.10;98.80;;;;;;632705;227;26744;-67
2022/03/19 06:10:11;;;;;;;5.32;2.25;;;3.30;98.60;;;;;;622184;229;26469;-66
2022/03/19 06:12:40;;;;;;;5.03;2.08;;;3.30;98.40;;;;;;633863;226;26467;-67
2022/03/19 06:15:08;;;;;;;5.28;2.55;;;3.30;98.40;;;;;;633456;227;26709;-65
2022/03/19 06:17:36;;;;;;;4.30;2.25;;;3.20;98.50;;;;;;633513;227;26754;-67
2022/03/19 06:20:04;;;;;;;4.65;2.45;;;3.30;98.40;;;;;;621004;231;26533;-66
2022/03/19 06:22:31;;;;;;;8.43;2.33;;;3.30;98.40;;;;;;633308;227;26494;-67
2022/03/19 06:24:59;;;;;;;5.18;2.53;;;3.30;98.60;;;;;;620963;232;26794;-67
2022/03/19 06:27:26;;;;;;;3.60;2.20;;;3.40;98.30;;;;;;633109;227;26466;-67
2022/03/19 06:29:53;;;;;;;6.40;2.53;;;3.40;98.30;;;;;;633006;227;26474;-65
2022/03/19 06:32:21;;;;;;;4.12;2.10;;;3.50;98.30;;;;;;620688;232;26502;-65
2022/03/19 06:34:48;;;;;;;3.50;2.08;;;3.50;98.30;;;;;;632948;227;26493;-67
2022/03/19 06:37:20;;;;;;;4.20;2.10;;;3.60;98.00;;;;;;620719;232;26474;-66
2022/03/19 06:39:48;;;;;;;3.80;1.95;;;3.40;98.10;;;;;;633006;227;26710;-66
2022/03/19 06:42:15;;;;;;;4.97;2.42;;;3.50;98.10;;;;;;621242;231;26597;-66
2022/03/19 06:44:44;;;;;;;4.37;2.30;;;3.70;98.30;;;;;;632770;227;26542;-66
2022/03/19 06:47:12;;;;;;;5.10;2.50;;;3.70;97.90;;;;;;632666;227;26740;-66
2022/03/19 06:49:39;;;;;;;4.50;2.28;;;3.70;97.90;;;;;;620384;232;26758;-66
2022/03/19 06:52:07;;;;;;;4.37;2.42;;;3.80;97.70;;;;;;632667;227;26507;-67
2022/03/19 06:54:35;;;;;;;4.55;2.22;;;3.80;97.70;;;;;;621015;232;26573;-65
2022/03/19 06:57:02;;;;;;;6.75;2.65;;;3.80;97.70;;;;;;632665;227;26865;-66
2022/03/19 06:59:31;;;;;;;3.60;2.12;;;3.90;98.10;;;;;;620986;232;26730;-66
2022/03/19 07:01:57;;;;;;;3.00;1.77;;;4.10;97.60;;;;;;632637;227;26522;-67
2022/03/19 07:04:24;;;;;;;3.83;2.30;;;4.20;97.20;;;;;;621008;231;27274;-67
2022/03/19 07:06:52;;;;;;;4.82;2.45;;;4.40;97.00;;;;;;632660;227;26555;-67
2022/03/19 07:09:20;;;;;;;3.33;2.17;;;4.40;96.90;;;;;;632682;227;26517;-67
2022/03/19 07:11:47;;;;;;;3.78;2.40;;;4.40;96.90;;;;;;632655;227;26557;-65
2022/03/19 07:14:14;;;;;;;3.15;2.10;;;4.50;96.80;;;;;;620953;231;26517;-66
2022/03/19 07:16:42;;;;;;;5.78;2.17;;;4.50;96.60;;;;;;631852;227;26813;-66
2022/03/19 07:19:09;;;;;;;6.28;2.30;;;4.60;96.70;;;;;;632707;227;26509;-67
2022/03/19 07:21:36;;;;;;;9.13;2.47;;;4.60;96.70;;;;;;634446;225;26726;-68
2022/03/19 07:24:04;;;;;;;3.40;2.10;;;4.70;96.70;;;;;;621496;231;26526;-67
2022/03/19 07:26:33;;;;;;;5.47;2.20;;;4.70;96.70;;;;;;633614;227;26468;-67
2022/03/19 07:28:59;;;;;;;4.85;2.12;;;4.70;96.90;;;;;;633469;227;27090;-67
2022/03/19 07:31:26;;;;;;;6.30;2.60;;;4.80;96.50;;;;;;633190;227;26493;-67
2022/03/19 07:33:53;;;;;;;5.62;2.35;;;5.10;96.20;;;;;;621512;231;26494;-66
2022/03/19 07:36:21;;;;;;;2.83;2.03;;;5.20;95.70;;;;;;633239;227;26507;-67
2022/03/19 07:38:49;;;;;;;3.33;2.15;;;5.30;95.80;;;;;;633030;227;26467;-66
2022/03/19 07:43:49;;;;;;;3.17;1.60;;;5.40;95.40;;;;;;620651;231;26487;-67
2022/03/19 07:46:16;;;;;;;4.03;2.00;;;5.20;95.30;;;;;;632903;227;26708;-67
2022/03/19 07:48:43;;;;;;;3.08;2.00;;;5.40;95.60;;;;;;633049;227;26468;-67
2022/03/19 07:51:11;;;;;;;4.07;2.17;;;5.50;95.10;;;;;;633033;227;26467;-67
2022/03/19 07:53:39;;;;;;;5.32;1.85;;;5.70;95.10;;;;;;633103;227;26471;-68
2022/03/19 07:56:06;;;;;;;3.97;1.87;;;5.60;95.00;;;;;;621264;231;26501;-67
2022/03/19 07:58:33;;;;;;;6.05;1.92;;;5.80;94.70;;;;;;632757;227;26518;-68
2022/03/19 08:01:00;;;;;;;4.87;1.85;;;5.90;94.60;;;;;;632674;227;27239;-67
2022/03/19 08:03:28;;;;;;;3.92;1.95;;;6.00;94.30;;;;;;620402;232;26465;-68
2022/03/19 08:05:55;;;;;;;4.30;2.00;;;6.00;94.20;;;;;;620927;227;26767;-67
2022/03/19 08:08:23;;;;;;;4.07;1.50;;;6.20;94.00;;;;;;621016;232;26529;-68
2022/03/19 08:10:50;;;;;;;3.00;1.75;;;6.20;94.00;;;;;;632642;227;26729;-68
2022/03/19 08:13:17;;;;;;;6.12;1.92;;;6.30;93.70;;;;;;632535;227;26517;-68
2022/03/19 08:15:44;;;;;;;5.93;1.90;;;6.40;93.60;;;;;;620973;231;26784;-68
2022/03/19 08:18:13;;;;;;;3.70;1.73;;;6.40;93.40;;;;;;632672;227;26507;-69
2022/03/19 08:20:39;;;;;;;2.35;1.65;;;6.50;93.10;;;;;;632568;227;26816;-68
2022/03/19 08:23:07;;;;;;;4.00;1.92;;;6.50;92.70;;;;;;620997;231;26521;-68
2022/03/19 08:25:35;;;;;;;3.58;1.85;;;6.50;92.70;;;;;;632613;227;26588;-68
2022/03/19 08:28:02;;;;;;;3.35;1.58;;;6.50;92.70;;;;;;632703;227;26738;-68
2022/03/19 08:30:29;;;;;;;3.75;2.08;;;6.60;92.80;;;;;;632697;227;26546;-67
2022/03/19 08:32:56;;;;;;;2.42;1.70;;;6.60;92.70;;;;;;621935;229;26738;-68
2022/03/19 08:35:23;;;;;;;2.80;1.80;;;6.70;92.70;;;;;;633895;226;26476;-68
2022/03/19 08:40:15;;;;;;;1.48;1.37;;;6.70;92.50;;;;;;621326;231;26547;-68
2022/03/19 08:40:21;;;;;;;2.53;1.55;;;6.70;92.60;;;;;;631698;227;26461;-67
2022/03/19 08:42:51;;;;;;;2.85;1.62;;;6.70;92.60;;;;;;621364;231;26535;-68
2022/03/19 08:45:15;;;;;;;3.08;1.83;;;6.60;92.50;;;;;;633170;227;26537;-68
2022/03/19 08:47:43;;;;;;;2.25;1.55;;;6.60;92.50;;;;;;633264;227;26552;-67
2022/03/19 08:50:10;;;;;;;2.03;1.48;;;6.60;92.50;;;;;;620839;232;26749;-68
2022/03/19 08:52:37;;;;;;;3.05;1.58;;;6.80;92.60;;;;;;632998;227;26462;-67
2022/03/19 08:55:05;;;;;;;3.55;1.37;;;6.90;92.20;;;;;;620664;232;26727;-68
2022/03/19 08:57:32;;;;;;;2.72;1.58;;;7.00;92.20;;;;;;632993;227;26478;-68
2022/03/19 09:00:01;;;;;;;2.40;1.70;;;7.10;91.80;;;;;;621307;231;27130;-68
2022/03/19 09:02:27;;;;;;;1.58;1.35;;;7.10;91.80;;;;;;632872;227;26707;-68
2022/03/19 09:04:55;;;;;;;2.28;1.50;;;7.30;91.10;;;;;;621263;231;26503;-68
2022/03/19 09:07:23;;;;;;;4.00;1.20;;;7.30;91.10;;;;;;632856;227;26492;-68
2022/03/19 09:09:53;;;;;;;2.35;1.62;;;7.30;91.10;;;;;;632704;227;26552;-68
2022/03/19 09:12:21;;;;;;;2.90;1.83;;;7.60;90.60;;;;;;632671;227;26535;-67
2022/03/19 09:14:48;;;;;;;1.62;1.52;;;7.60;90.60;;;;;;632478;227;26542;-67
2022/03/19 09:17:15;;;;;;;2.28;1.70;;;7.70;90.60;;;;;;632693;227;26515;-68
2022/03/19 09:19:43;;;;;;;2.50;1.40;;;7.70;90.10;;;;;;632703;227;26730;-67
2022/03/19 09:22:10;;;;;;;2.17;1.40;;;7.70;89.90;;;;;;632670;227;26483;-67
2022/03/19 09:24:37;;;;;;;1.70;1.50;;;7.80;89.70;;;;;;620948;232;26542;-68
2022/03/19 09:27:05;;;;;;;2.35;1.42;;;8.00;88.60;;;;;;632602;227;26602;-67
2022/03/19 09:29:33;;;;;;;1.60;1.30;;;8.10;88.50;;;;;;632618;227;26512;-67
2022/03/19 09:32:00;;;;;;;3.08;1.50;;;8.10;88.50;;;;;;620970;231;26728;-68
2022/03/19 09:34:27;;;;;;;1.35;1.25;;;8.30;87.60;;;;;;620922;232;26544;-68
2022/03/19 09:36:55;;;;;;;1.30;1.23;;;8.50;87.30;;;;;;619296;232;26811;-68
2022/03/19 09:39:22;;;;;;;1.98;1.35;;;8.50;86.60;;;;;;644541;223;26752;-67
2022/03/19 09:41:50;;;;;;;1.85;1.50;;;8.50;85.90;;;;;;632622;227;26519;-67
2022/03/19 09:44:19;;;;;;;2.45;1.55;;;8.50;85.80;;;;;;634081;225;26511;-68
2022/03/19 09:46:47;;;;;;;1.52;1.42;;;8.60;83.70;;;;;;633947;226;26775;-67
2022/03/19 09:49:13;;;;;;;2.08;1.45;;;8.70;83.40;;;;;;633486;227;26474;-67
2022/03/19 09:51:41;;;;;;;1.52;1.42;;;8.80;83.20;;;;;;633591;227;26453;-67
2022/03/19 09:54:09;;;;;;;4.60;1.55;;;9.40;81.70;;;;;;633210;227;26770;-68
2022/03/19 09:56:36;;;;;;;1.42;1.20;;;9.40;81.60;;;;;;633155;227;27170;-68
2022/03/19 09:59:03;;;;;;;1.90;1.45;;;9.30;81.30;;;;;;633249;227;26514;-67
2022/03/19 10:01:31;;;;;;;1.45;1.23;;;9.30;81.00;;;;;;633151;227;26471;-67
2022/03/19 10:04:00;;;;;;;1.52;1.30;;;9.30;81.20;;;;;;632912;227;26466;-68
2022/03/19 10:09:01;;;;;;;1.67;1.40;;;9.20;81.00;;;;;;621296;231;26493;-67
2022/03/19 10:11:31;;;;;;;1.87;1.50;;;9.30;81.20;;;;;;632984;227;26453;-68
2022/03/19 10:13:56;;;;;;;1.27;1.17;;;9.30;81.40;;;;;;619372;232;26982;-68
2022/03/19 10:16:25;;;;;;;1.73;1.60;;;9.30;81.10;;;;;;644838;222;26561;-67
2022/03/19 10:18:58;;;;;;;2.15;1.37;;;9.40;81.10;;;;;;644794;223;26525;-68
2022/03/19 10:21:25;;;;;;;1.10;1.10;;;9.40;80.80;;;;;;644456;223;26514;-67
2022/03/19 10:23:53;;;;;;;2.60;1.33;;;9.50;80.40;;;;;;644414;223;26516;-67
2022/03/19 10:26:24;;;;;;;2.30;1.40;;;9.50;80.50;;;;;;644461;223;26781;-68
2022/03/19 10:28:58;;;;;;;1.20;1.10;;;9.50;79.60;;;;;;644645;223;26486;-68
2022/03/19 10:31:30;;;;;;;1.87;1.30;;;9.30;79.30;;;;;;644653;223;26510;-67
2022/03/19 10:33:56;;;;;;;2.20;1.48;;;9.30;79.30;;;;;;644433;223;26517;-68
2022/03/19 10:36:29;;;;;;;1.25;1.00;;;9.30;78.60;;;;;;644520;223;26769;-68
2022/03/19 10:38:56;;;;;;;2.67;1.42;;;9.30;78.00;;;;;;644473;223;26510;-68
2022/03/19 10:41:24;;;;;;;1.60;1.35;;;9.90;76.60;;;;;;644584;223;26487;-68
2022/03/19 10:43:51;;;;;;;1.58;1.48;;;9.90;76.60;;;;;;644453;222;26754;-68
2022/03/19 10:46:19;;;;;;;1.75;1.25;;;10.10;75.60;;;;;;644515;223;26535;-67
2022/03/19 10:48:48;;;;;;;1.62;1.35;;;10.30;74.20;;;;;;644534;223;26758;-68
2022/03/19 10:51:15;;;;;;;2.12;1.40;;;10.60;74.10;;;;;;644395;223;26511;-67
2022/03/19 10:53:42;;;;;;;1.50;1.20;;;10.80;70.80;;;;;;644521;223;26474;-68
2022/03/19 10:56:11;;;;;;;1.58;1.48;;;10.60;70.90;;;;;;646169;221;26552;-66
2022/03/19 10:58:39;;;;;;;2.20;1.33;;;10.70;70.40;;;;;;645807;222;26518;-67
2022/03/19 11:01:09;;;;;;;3.28;1.65;;;10.80;70.60;;;;;;645488;222;26543;-68
2022/03/19 11:03:35;;;;;;;3.45;1.20;;;10.80;70.50;;;;;;645424;223;26512;-67
2022/03/19 11:06:04;;;;;;;1.42;1.33;;;10.80;70.40;;;;;;645092;223;26804;-68
2022/03/19 11:08:30;;;;;;;1.40;1.30;;;11.10;70.00;;;;;;645158;223;26520;-68
2022/03/19 11:10:59;;;;;;;1.40;1.30;;;11.30;69.80;;;;;;645128;223;26634;-67
2022/03/19 11:13:25;;;;;;;3.50;1.60;;;11.80;68.80;;;;;;644841;223;26560;-68
2022/03/19 11:15:54;;;;;;;2.05;1.62;;;11.90;67.60;;;;;;644610;223;26584;-68
2022/03/19 11:18:22;;;;;;;2.60;1.40;;;12.00;66.40;;;;;;644739;223;26549;-67
2022/03/19 11:20:50;;;;;;;4.07;1.67;;;11.90;66.20;;;;;;644899;223;26537;-67
2022/03/19 11:23:17;;;;;;;2.33;1.45;;;11.90;65.40;;;;;;644831;223;26584;-68
2022/03/19 11:25:45;;;;;;;1.85;1.45;;;11.90;66.10;;;;;;644538;223;26803;-68
2022/03/19 11:28:13;;;;;;;2.15;1.15;;;11.80;65.20;;;;;;644707;223;26580;-68
2022/03/19 11:30:40;;;;;;;1.60;1.50;;;11.60;66.00;;;;;;644748;223;26738;-68
2022/03/19 11:33:24;;;;;;;1.52;1.42;;;11.20;66.60;;;;;;644261;223;26509;-68
2022/03/19 11:36:08;;;;;;;1.90;1.40;;;11.20;66.60;;;;;;644878;223;26498;-68
2022/03/19 11:38:52;;;;;;;1.42;1.33;;;11.00;67.70;;;;;;644933;223;26490;-68
2022/03/19 11:41:22;;;;;;;1.27;1.17;;;10.90;68.70;;;;;;644666;222;26510;-67
2022/03/19 11:43:49;;;;;;;4.78;1.50;;;10.90;68.70;;;;;;642382;221;26514;-68
2022/03/19 11:46:17;;;;;;;3.20;1.40;;;11.00;68.20;;;;;;638202;225;26524;-68
2022/03/19 11:48:48;;;;;;;2.30;1.75;;;11.10;68.50;;;;;;638139;225;26513;-69
2022/03/19 11:51:24;;;;;;;1.67;1.23;;;11.10;68.40;;;;;;638188;225;26496;-69
2022/03/19 11:54:04;;;;;;;2.15;1.40;;;11.40;68.20;;;;;;637999;225;26714;-69
2022/03/19 11:56:51;;;;;;;2.67;1.50;;;11.60;68.00;;;;;;638206;225;26500;-69
2022/03/19 11:59:36;;;;;;;1.50;1.40;;;11.30;68.40;;;;;;637235;225;26791;-69
2022/03/19 12:02:10;;;;;;;1.70;1.40;;;11.30;68.40;;;;;;637433;225;26520;-69
2022/03/19 12:04:41;;;;;;;3.62;1.50;;;11.20;68.80;;;;;;638177;225;26720;-69
2022/03/19 12:07:08;;;;;;;1.50;1.40;;;11.10;69.60;;;;;;639470;223;26750;-67
2022/03/19 12:10:03;;;;;;;2.03;1.60;;;11.10;70.00;;;;;;639526;224;26516;-69
2022/03/19 12:12:30;;;;;;;2.08;1.55;;;10.90;70.20;;;;;;639140;225;26577;-69
2022/03/19 12:14:57;;;;;;;1.52;1.40;;;11.00;70.40;;;;;;639037;225;26769;-69
2022/03/19 12:17:29;;;;;;;2.80;1.80;;;11.40;69.90;;;;;;638812;225;26548;-69
2022/03/19 12:19:59;;;;;;;2.45;1.80;;;11.90;69.00;;;;;;638792;225;26594;-68
2022/03/19 12:22:26;;;;;;;1.73;1.60;;;12.20;68.00;;;;;;638718;225;26518;-68
2022/03/19 12:24:53;;;;;;;3.15;1.87;;;12.30;67.70;;;;;;638583;225;26840;-69
2022/03/19 12:27:21;;;;;;;1.98;1.75;;;12.30;67.90;;;;;;638161;225;26535;-69
2022/03/19 12:29:48;;;;;;;1.73;1.52;;;12.20;67.90;;;;;;638512;225;27199;-69
2022/03/19 12:32:15;;;;;;;2.95;1.83;;;11.80;68.50;;;;;;638509;225;26505;-67
2022/03/19 12:34:42;;;;;;;1.83;1.67;;;11.60;69.50;;;;;;638499;224;26783;-67
2022/03/19 12:37:09;;;;;;;2.87;1.80;;;11.60;69.50;;;;;;638496;225;26542;-67
2022/03/19 12:39:37;;;;;;;3.00;1.87;;;11.40;69.10;;;;;;638457;225;27107;-68
2022/03/19 12:42:05;;;;;;;2.20;1.73;;;11.20;70.10;;;;;;638457;225;26570;-67
2022/03/19 12:44:36;;;;;;;6.82;1.80;;;11.10;70.00;;;;;;638185;225;26828;-68
2022/03/19 12:46:59;;;;;;;1.62;1.50;;;10.90;70.80;;;;;;638109;225;26472;-69
2022/03/19 12:49:26;;;;;;;2.10;1.80;;;10.70;71.50;;;;;;637897;225;26750;-69
2022/03/19 12:51:53;;;;;;;2.95;1.90;;;10.70;71.20;;;;;;638212;225;26492;-68
2022/03/19 12:54:24;;;;;;;3.28;1.98;;;10.80;70.20;;;;;;638161;225;26775;-67
2022/03/19 12:56:50;;;;;;;3.05;1.77;;;10.70;70.00;;;;;;638087;225;26763;-69
2022/03/19 12:59:20;;;;;;;2.55;1.83;;;10.90;68.90;;;;;;638204;225;26507;-68
2022/03/19 13:01:47;;;;;;;2.22;1.83;;;10.90;68.90;;;;;;638182;225;26496;-68
2022/03/19 13:04:24;;;;;;;3.28;1.90;;;10.90;68.20;;;;;;638112;225;26742;-68
2022/03/19 13:06:51;;;;;;;3.72;1.98;;;11.00;67.90;;;;;;638222;225;26512;-69